Latest Weather Observations for Maningrida Airport

IDD60801

Issued at 4:05 pm CST Thursday 28 August 2014 (issued every 30 minutes, with the page automatically refreshed every 10 minutes)

About weather observations | Map of weather stations | Latest weather observations for NT | Other Formats
Station Details ID: 014405 Name: MANINGRIDA AIRPORT Lat: -12.06 Lon: 134.23 Height: 28.1 m
Data from the previous 72 hours. | See also: Recent months at Maningrida Airport
Date/Time
CST
Temp
°C
App
Temp
°C
Dew
Point
Rel
Hum
%
Delta-T
°C
Wind Press
QNH
hPa
Press
MSL
hPa
Rain
since 9 am
mm
Dir
 
Spd
km/h
Gust
km/h
Spd
kts
Gust
kts
28/04:00pm 28.6 26.3 12.9 38 9.3 NE 17 22 9 12 1011.3 - 0.0
28/03:30pm 29.1 26.3 12.5 36 9.7 NE 19 26 10 14 1011.2 - 0.0
28/03:00pm 31.9 27.4 6.9 21 13.6 ESE 20 33 11 18 1011.0 1010.9 0.0
28/02:30pm 31.2 26.6 6.3 21 13.3 ESE 20 30 11 16 1011.4 - 0.0
28/02:00pm 31.3 25.9 6.4 21 13.4 ESE 24 37 13 20 1011.8 - 0.0
28/01:30pm 30.6 25.4 7.1 23 12.7 E 24 35 13 19 1012.2 - 0.0
28/01:00pm 31.0 25.5 7.5 23 12.8 SE 26 35 14 19 1012.7 - 0.0
28/12:30pm 30.8 26.1 6.0 21 13.2 ESE 20 33 11 18 1013.3 - 0.0
28/12:00pm 29.7 23.9 6.4 23 12.4 SE 26 35 14 19 1013.7 1013.6 0.0
28/11:30am 28.6 22.4 6.1 24 11.8 ESE 28 43 15 23 1014.0 - 0.0
28/11:00am 28.6 23.0 5.5 23 12.0 SE 24 35 13 19 1014.4 - 0.0
28/10:30am 27.8 20.9 4.8 23 11.8 SE 30 43 16 23 1014.7 - 0.0
28/10:00am 26.5 20.4 6.5 28 10.5 SE 28 37 15 20 1014.9 - 0.0
28/09:45am 26.5 20.3 6.0 27 10.6 SE 28 46 15 25 1015.0 - 0.0
28/09:30am 25.5 21.4 8.5 34 9.2 SE 20 30 11 16 1015.2 - 0.0
28/09:00am 23.9 20.5 10.6 43 7.4 SE 19 24 10 13 1015.1 1015.0 0.0
28/08:30am 22.2 19.3 11.0 49 6.2 SSE 17 26 9 14 1015.0 - 0.0
28/08:00am 19.8 17.8 12.6 63 4.1 SSE 15 20 8 11 1014.8 - 0.0
28/07:30am 17.4 15.8 12.7 74 2.6 SSE 13 19 7 10 1014.6 - 0.0
28/07:00am 14.9 13.9 12.4 85 1.4 S 9 11 5 6 1014.5 - 0.0
28/06:30am 14.8 13.7 12.1 84 1.5 S 9 15 5 8 1014.2 - 0.0
28/06:00am 16.8 15.1 12.5 76 2.4 SSE 13 17 7 9 1013.9 1013.8 0.0
28/05:30am 16.4 14.8 12.8 79 2.0 SSE 13 17 7 9 1013.6 - 0.0
28/05:00am 17.2 15.7 13.1 77 2.3 SSE 13 19 7 10 1013.3 - 0.0
28/04:30am 16.5 14.8 12.5 77 2.2 SSE 13 15 7 8 1013.6 - 0.0
28/04:00am 17.1 14.9 12.2 73 2.7 SE 15 17 8 9 1013.6 - 0.0
28/03:30am 17.3 15.1 12.2 72 2.8 SSE 15 17 8 9 1013.6 - 0.0
28/03:00am 18.7 17.0 12.5 67 3.5 SSE 13 17 7 9 1013.5 1013.4 0.0
28/02:30am 18.4 16.9 11.9 66 3.6 SSE 11 13 6 7 1013.6 - 0.0
28/02:00am 19.2 17.4 12.2 64 3.9 SSE 13 15 7 8 1013.8 - 0.0
28/01:30am 19.7 17.5 12.0 61 4.3 SSE 15 19 8 10 1014.0 - 0.0
28/01:00am 20.8 18.6 12.2 58 4.8 SSE 15 20 8 11 1014.3 - 0.0
28/12:30am 21.6 18.5 12.2 55 5.3 SSE 20 28 11 15 1014.4 - 0.0
28/12:00am 22.4 19.4 12.1 52 5.8 SE 19 24 10 13 1014.7 1014.6 0.0
 
Date/Time
CST
Temp
°C
App
Temp
°C
Dew
Point
Rel
Hum
%
Delta-T
°C
Wind Press
QNH
hPa
Press
MSL
hPa
Rain
since 9 am
mm
Dir
 
Spd
km/h
Gust
km/h
Spd
kts
Gust
kts
27/11:30pm 22.6 19.4 11.4 49 6.3 SE 19 24 10 13 1014.7 - 0.0
27/11:00pm 23.4 19.8 10.5 44 7.1 SE 20 26 11 14 1014.6 - 0.0
27/10:30pm 24.0 19.4 9.6 40 7.9 SE 24 33 13 18 1014.5 - 0.0
27/10:00pm 24.7 20.5 9.8 39 8.2 SE 22 30 12 16 1014.4 - 0.0
27/09:30pm 25.1 21.1 9.0 36 8.7 SE 20 30 11 16 1014.1 - 0.0
27/09:00pm 25.5 21.4 8.5 34 9.2 SE 20 28 11 15 1013.8 1013.7 0.0
27/08:30pm 25.9 22.0 8.8 34 9.3 ESE 19 26 10 14 1013.4 - 0.0
27/08:00pm 26.1 22.8 9.4 35 9.2 ESE 17 24 9 13 1013.0 - 0.0
27/07:30pm 26.3 23.4 10.9 38 8.7 ESE 17 22 9 12 1012.4 - 0.0
27/07:00pm 25.9 25.1 15.0 51 6.6 ESE 13 19 7 10 1012.0 - 0.0
27/06:30pm 25.5 26.8 18.4 65 4.5 E 9 11 5 6 1011.5 - 0.0
27/06:00pm 26.4 26.7 18.0 60 5.3 E 13 19 7 10 1011.2 1011.1 0.0
27/05:30pm 27.2 26.5 17.4 55 6.2 ENE 17 26 9 14 1011.0 - 0.0
27/05:00pm 27.6 25.9 16.2 49 7.0 NE 20 30 11 16 1010.8 - 0.0
27/04:30pm 28.1 26.1 15.4 46 7.8 ENE 20 32 11 17 1010.8 - 0.0
27/04:00pm 28.6 26.3 14.1 41 8.7 ENE 19 32 10 17 1010.7 - 0.0
27/03:30pm 29.2 26.1 12.2 35 9.9 NE 20 28 11 15 1010.6 - 0.0
27/03:00pm 32.4 28.3 8.0 22 13.5 E 19 32 10 17 1010.6 1010.5 0.0
27/02:30pm 31.7 27.3 7.4 22 13.3 ESE 20 30 11 16 1010.7 - 0.0
27/02:00pm 32.2 27.9 7.1 21 13.7 E 19 33 10 18 1011.2 - 0.0
27/01:30pm 32.1 27.4 7.7 22 13.4 E 22 33 12 18 1011.7 - 0.0
27/01:00pm 30.9 26.0 6.7 22 13.0 ESE 22 33 12 18 1012.2 - 0.0
27/12:30pm 31.1 24.5 6.2 21 13.3 SE 30 43 16 23 1012.6 - 0.0
27/12:00pm 31.2 26.0 5.6 20 13.6 ESE 22 39 12 21 1012.8 1012.7 0.0
27/11:30am 29.7 24.2 7.6 25 12.0 SE 26 41 14 22 1013.2 - 0.0
27/11:01am 28.7 22.1 6.1 24 11.9 SE 30 48 16 26 1013.6 - 0.0
27/11:00am 29.2 22.5 7.2 25 11.8 SE 32 48 17 26 1013.6 - 0.0
27/10:38am 28.6 21.8 6.7 25 11.6 SE 32 52 17 28 1013.9 - 0.0
27/10:30am 28.7 23.7 7.9 27 11.3 ESE 24 37 13 20 1013.9 - 0.0
27/10:00am 27.3 23.3 10.5 35 9.5 SE 22 33 12 18 1014.1 - 0.0
27/09:30am 26.4 22.8 11.7 40 8.4 SE 22 28 12 15 1014.1 - 0.0
27/09:00am 24.4 21.9 14.2 53 6.0 SE 20 32 11 17 1014.1 1014.0 0.0
27/08:30am 22.3 22.3 16.3 69 3.6 SSE 11 17 6 9 1014.1 - 0.0
27/08:00am 19.3 20.2 18.3 94 0.6 S 11 15 6 8 1013.9 - 0.0
27/07:30am 17.7 18.3 17.7 100 0.0 S 11 13 6 7 1013.8 - 0.0
27/07:00am 16.9 17.9 16.9 100 0.0 S 7 13 4 7 1013.6 - 0.0
27/06:30am 16.1 16.7 15.9 99 0.1 S 7 9 4 5 1013.4 - 0.0
27/06:00am 17.1 17.7 16.9 99 0.1 S 9 11 5 6 1013.2 1013.1 0.0
27/05:30am 17.6 18.4 17.3 98 0.2 SSE 9 13 5 7 1013.0 - 0.0
27/05:00am 17.5 18.4 16.7 95 0.5 SSE 7 11 4 6 1012.8 - 0.0
27/04:30am 18.4 19.5 17.1 92 0.8 SSE 7 7 4 4 1012.8 - 0.0
27/04:00am 19.0 19.7 17.0 88 1.2 SSE 9 11 5 6 1012.9 - 0.0
27/03:30am 19.8 19.5 17.4 86 1.5 SE 15 17 8 9 1013.0 - 0.0
27/03:00am 20.8 19.8 17.6 82 2.0 SE 19 22 10 12 1013.0 1012.9 0.0
27/02:30am 21.2 20.2 17.6 80 2.2 SE 19 26 10 14 1013.2 - 0.0
27/02:00am 21.7 20.4 17.3 76 2.7 SE 20 28 11 15 1013.2 - 0.0
27/01:30am 22.1 20.8 16.8 72 3.2 ESE 19 26 10 14 1013.4 - 0.0
27/01:00am 22.5 20.9 16.5 69 3.7 ESE 20 28 11 15 1013.6 - 0.0
27/12:30am 22.8 20.0 15.4 63 4.4 SE 24 32 13 17 1013.8 - 0.0
27/12:00am 23.4 20.9 14.1 56 5.5 ESE 20 28 11 15 1013.9 1013.8 0.0
 
Date/Time
CST
Temp
°C
App
Temp
°C
Dew
Point
Rel
Hum
%
Delta-T
°C
Wind Press
QNH
hPa
Press
MSL
hPa
Rain
since 9 am
mm
Dir
 
Spd
km/h
Gust
km/h
Spd
kts
Gust
kts
26/11:30pm 24.0 20.7 14.1 54 5.8 SE 24 32 13 17 1013.8 - 0.0
26/11:00pm 23.4 21.1 11.8 48 6.6 SSE 15 22 8 12 1013.7 - 0.0
26/10:30pm 24.1 21.9 12.1 47 6.8 SE 15 20 8 11 1013.5 - 0.0
26/10:00pm 22.6 21.4 13.9 58 5.1 SE 13 20 7 11 1013.3 - 0.0
26/09:30pm 21.9 22.9 16.8 73 3.1 SE 7 9 4 5 1013.1 - 0.0
26/09:00pm 22.9 23.9 17.8 73 3.2 E 9 11 5 6 1012.8 1012.7 0.0
26/08:30pm 23.2 24.7 18.1 73 3.2 E 7 9 4 5 1012.5 - 0.0
26/08:00pm 23.7 25.2 18.1 71 3.5 E 7 11 4 6 1012.1 - 0.0
26/07:30pm 24.0 25.3 17.5 67 4.0 E 7 9 4 5 1011.7 - 0.0
26/07:00pm 24.8 25.7 16.5 60 5.1 ENE 7 11 4 6 1011.4 - 0.0
26/06:30pm 25.8 25.9 15.5 53 6.3 ENE 9 15 5 8 1010.9 - 0.0
26/06:00pm 26.8 25.8 14.5 46 7.4 ENE 13 17 7 9 1010.5 1010.4 0.0
26/05:30pm 28.1 26.9 14.0 42 8.4 ENE 13 20 7 11 1010.2 - 0.0
26/05:00pm 28.6 26.9 13.7 40 8.9 ENE 15 20 8 11 1010.3 - 0.0
26/04:30pm 29.8 27.9 13.1 36 9.9 ENE 15 20 8 11 1010.2 - 0.0
26/04:00pm 30.4 28.2 13.2 35 10.3 NE 17 24 9 13 1010.2 - 0.0
26/03:30pm 31.9 28.0 9.4 25 12.7 SE 20 28 11 15 1010.3 - 0.0
26/03:00pm 32.2 29.5 10.3 26 12.6 E 15 22 8 12 1010.5 1010.4 0.0
26/02:30pm 31.8 29.0 9.9 26 12.5 ESE 15 22 8 12 1010.9 - 0.0
26/02:00pm 31.7 28.3 9.3 25 12.6 ESE 17 26 9 14 1011.2 - 0.0
26/01:30pm 31.4 27.7 9.6 26 12.3 ENE 19 35 10 19 1011.6 - 0.0
26/01:00pm 31.3 27.3 8.9 25 12.5 SE 20 32 11 17 1012.0 - 0.0
26/12:30pm 30.9 26.7 9.7 27 12.0 SE 22 43 12 23 1012.7 - 0.0
26/12:00pm 30.3 26.0 9.2 27 11.8 SE 22 35 12 19 1013.2 1013.1 0.0
26/11:30am 30.0 24.7 8.4 26 11.9 SE 26 35 14 19 1013.6 - 0.0
26/11:00am 29.5 22.8 7.4 25 11.9 SSE 32 50 17 27 1014.0 - 0.0
26/10:52am 29.0 22.2 7.0 25 11.8 SSE 32 50 17 27 1014.1 - 0.0
26/10:30am 28.5 22.5 8.7 29 10.9 SE 30 41 16 22 1014.3 - 0.0
26/10:00am 27.3 21.3 8.7 31 10.2 SSE 30 44 16 24 1014.6 - 0.0
26/09:30am 26.7 20.9 9.5 34 9.5 SSE 30 44 16 24 1014.8 - 0.0
26/09:00am 25.1 20.0 12.0 44 7.5 SSE 30 37 16 20 1014.7 1014.6 0.0
26/08:30am 23.0 19.4 13.2 54 5.7 SSE 24 33 13 18 1014.6 - 0.0
26/08:00am 21.4 19.7 14.8 66 3.9 SSE 17 24 9 13 1014.4 - 0.0
26/07:30am 18.5 17.4 15.2 81 1.9 S 15 20 8 11 1014.1 - 0.0
26/07:00am 16.9 16.1 14.0 83 1.7 S 11 17 6 9 1013.8 - 0.0
26/06:30am 17.2 15.8 13.3 78 2.2 S 13 19 7 10 1013.4 - 0.0
26/06:00am 18.3 16.7 13.8 75 2.6 SSE 15 20 8 11 1013.1 1013.0 0.0
26/05:30am 18.6 16.5 13.5 72 2.9 SSE 17 22 9 12 1012.8 - 0.0
26/05:00am 18.3 17.2 13.2 72 2.9 SSE 11 15 6 8 1012.9 - 0.0
26/04:30am 18.6 16.9 12.6 68 3.4 SSE 13 17 7 9 1012.7 - 0.0
26/04:00am 18.7 16.8 11.8 64 3.8 SSE 13 20 7 11 1012.8 - 0.0
26/03:30am 18.4 16.1 10.5 60 4.2 SSE 13 17 7 9 1012.9 - 0.0
26/03:00am 18.8 16.7 9.8 56 4.8 S 11 17 6 9 1013.1 1013.0 0.0
26/02:30am 18.9 16.6 9.1 53 5.1 S 11 17 6 9 1013.2 - 0.0
26/02:00am 19.7 17.4 9.0 50 5.6 S 11 15 6 8 1013.5 - 0.0
26/01:30am 19.4 17.3 8.1 48 5.8 S 9 13 5 7 1013.7 - 0.0
26/01:00am 19.5 17.3 7.9 47 6.0 S 9 13 5 7 1013.9 - 0.0
26/12:30am 19.6 17.4 8.0 47 6.0 S 9 11 5 6 1014.1 - 0.0
26/12:00am 19.4 17.2 7.8 47 6.0 S 9 13 5 7 1014.3 1014.2 0.0
 
Date/Time
CST
Temp
°C
App
Temp
°C
Dew
Point
Rel
Hum
%
Delta-T
°C
Wind Press
QNH
hPa
Press
MSL
hPa
Rain
since 9 am
mm
Dir
 
Spd
km/h
Gust
km/h
Spd
kts
Gust
kts
25/11:30pm 20.5 18.7 7.8 44 6.6 SSE 7 9 4 5 1014.4 - 0.0
25/11:00pm 21.9 19.6 7.3 39 7.5 SSE 9 11 5 6 1014.4 - 0.0
25/10:30pm 22.7 19.5 6.9 36 8.1 SE 13 17 7 9 1014.3 - 0.0
25/10:00pm 24.3 20.8 7.0 33 9.0 SE 15 20 8 11 1014.3 - 0.0
25/09:30pm 25.1 21.2 7.3 32 9.4 SE 17 22 9 12 1014.1 - 0.0
25/09:00pm 25.9 21.5 7.5 31 9.8 SE 20 28 11 15 1013.9 1013.8 0.0
25/08:30pm 26.5 21.0 7.5 30 10.1 SE 26 33 14 18 1013.6 - 0.0
25/08:00pm 27.0 22.0 8.0 30 10.2 SE 24 35 13 19 1013.4 - 0.0
25/07:30pm 27.5 22.8 9.3 32 10.1 SE 24 33 13 18 1012.9 - 0.0
25/07:00pm 28.3 24.2 10.0 32 10.3 SE 22 30 12 16 1012.4 - 0.0
25/06:30pm 29.1 24.8 10.7 32 10.5 SE 24 33 13 18 1012.0 - 0.0
25/06:00pm 30.1 26.7 10.6 30 11.2 SE 19 32 10 17 1011.6 1011.5 0.0
25/05:30pm 30.9 27.6 10.8 29 11.6 SE 19 26 10 14 1011.4 - 0.0
25/05:00pm 31.3 27.7 10.6 28 11.9 SE 20 28 11 15 1011.0 - 0.0
25/04:30pm 31.9 27.9 10.6 27 12.3 SE 22 28 12 15 1010.9 - 0.0

Other Formats:

Comma delimited format used in spreadsheet applications
http://www.bom.gov.au/fwo/IDD60801/IDD60801.95142.axf

JavaScript Object Notation format (JSON) in row-major order
http://www.bom.gov.au/fwo/IDD60801/IDD60801.95142.json